Mason, Michelle
United StatesWomanBorn 19692010 – 2026Runner id 134724
Events
39
38 race dates
Best pace
9.213
km/h · 2011
Best finish
13th
of 195 · 2012
Distance raced
4,131
km · splits not double-counted
Pace over time
38 of 39 results · km/h
Pace over time: 38 races from 2010 to 2026, ranging from 3.31 to 9.73 kilometres per hour, where higher is faster. A second, age-graded series is drawn above it; the gap between the two is the age credit.
- Actual pace
- Age-graded pace
1 result is not on this chart. They are counted in every statistic above and listed in full below — backyard ultras carry a lap count instead of a pace, which is the number that means something in that format.
Results
| Date | Event | Distance | Result | Pace km/h | Placing |
|---|---|---|---|---|---|
| 2010-06-05 | 50mi | 11:55:22 h | 6.749 | 117/164 | |
| 2010-12-11 | 50km | 11:05:00 h | 4.511 | 19/25 | |
| 2011-02-12 | 50km | 5:25:38 h | 9.213 | 24/82 | |
| 2011-06-04 | 50mi | 10:22:33 h | 7.755 | 116/211 | |
| 2011-07-16 | 24h | 136.086 km | 5.670 | 35/198 | |
| 2011-10-16 | 6h | 55.103 km | 9.184 | 20/57 | |
| 2011-11-12 | 100mi | 27:19:07 h | 5.891 | 109/174 | |
| 2012-02-04 | 50mi | 10:52:45 h | 7.396 | 100/259 | |
| 2012-05-12 | Long Island Greenbelt Trail 50 kmUnited States | 50km | 7:00:56 h | 7.127 | 30/47 |
| 2012-06-03 | 89km | 10:29:05 h | 8.489 | 5844/11896 | |
| 2012-07-14 | 24h | 163.303 km | 6.804 | 13/195 | |
| 2013-09-21 | 50km | 6:47:08 h | 7.369 | 33/60 | |
| 2013-10-26 | 100mi | 25:49:17 h | 6.233 | 67/157 | |
| 2014-01-25 | 50mi | 12:17:14 h | 6.549 | 12/27 | |
| 2014-04-06 | Marathon des SablesMorocco | 244km | 2d 00:10:10 h | 5.065 | 521/917 |
| 2014-06-01 | Cayuga Trails 50 Mile RaceUnited States | 50mi | 12:51:00 h | 6.262 | 139/176 |
| 2014-07-19 | 100mi | 24:55:11 h | 6.458 | 135/230 | |
| 2014-09-05 | 202mi | 4d 02:19:44 h | 3.306 | 57/60 | |
| 2014-11-15 | Dizzy Fifties - 50 km Trail RunUnited States | 50km | 7:12:46 h | 6.932 | 52/87 |
| 2015-04-11 | 45mi | 10:58:27 h | 6.599 | 39/59 | |
| 2015-07-18 | Lone Ranger 24 hr Urban UltraUnited States | 24h | 136.150 km | 5.673 | 13/128 |
| 2015-10-18 | 6h | 51.724 km | 8.621 | 19/37 | |
| 2015-10-31 | 100mi | 25:47:44 h | 6.239 | 145/281 | |
| 2015-11-14 | 60km | 6:37:37 h | 9.054 | 158/350 | |
| 2016-01-23 | 52mi | 12:40:51 h | 6.599 | 19/22 | |
| 2017-03-11 | 50km | 8:34:26 h | 5.832 | 188/193 | |
| 2017-04-22 | 60km | 7:00:08 h | 8.569 | 11/18 | |
| 2017-06-09 | 24h | 130.083 km | 5.420 | 10/19 | |
| 2017-09-16 | 50km | 8:02:26 h | 6.218 | 51/60 | |
| 2017-12-31 | New Years One Day 24 Hour RunUnited States | 24h | 123.404 km | 5.142 | 14/56 |
| 2019-11-02 | 100mi | 29:37:44 h | 5.432 | 234/239 | |
| 2021-05-29 | Silver Moon 24 Hour Race - Paso RoblesUnited States | 24h | 125.528 km | 5.230 | 5/29 |
| 2021-08-01 | 50km | 7:51:36 h | 6.361 | 163/201 | |
| 2023-04-08 | Silver Moon Race 12 Hour RaceUnited States | 12h | 64.373 km | 5.364 | 8/14 |
| 2023-05-27 | 100mi | 28:35:20 h | 5.629 | 9/10 | |
| 2024-02-25 | Silver Moon 12 Hour Race - Sun RunUnited States | 12h | 70.811 km | 5.901 | 6/8 |
| 2024-09-20 | 100mi | 30:15:27 h | 5.319 | 5/14 | |
| 2025-10-11 | 100mi | 0:00:00 h | — | 2/22 | |
| 2026-07-18 | 50km | 12:20:47 h | 4.050 | 144/155 |